Terminal Aerodrome Forecast
Issued by NWS

Home | Current Version | Previous Version | Text Only | Print | Product List | Glossary On
Versions: 1 2 3 4 5 6 7 8 9 10 11 12 13 14 15
000
FTUS43 KMQT 081139 AAA
TAFCMX
TAF AMD
KCMX 081139Z 0812/0912 34016G24KT 2SM -SHSN BLSN OVC015
     FM081600 35016G28KT 3SM -SHSN BLSN OVC020
     FM082300 34014G25KT 2SM -SHSN BLSN OVC020
     FM090300 34014G25KT 1 1/2SM -SHSN BLSN OVC020
     FM090800 34011G21KT 1 1/2SM -SHSN OVC015=

USA.gov is the U.S. government's official web portal to all federal, state and local government web resources and services.